Daviston, Alabama
Current Conditions -  °F | °C
As of 1:55 AM on Monday 26 Jan 2015 (Local Time) from KALX Reporting Station
Broken Clouds Broken Clouds  
Wind Chill: 46°   Ceiling: 5000
Heat Index: 49°   Visibility: 10mi
Dew Point: 42°   Wind: 7mph
Humidity: 77%   Direction: 290°WNW
Pressure: 29.82"   Gusts: NA
Location:  33.05°N, 85.64°W
Report Text: KALX 260755Z AUTO 29006KT 10SM BKN050 BKN085 10/06 A2982 RMK AO2 T00950056
Loading
Personal Weather Stations






























Interactive Weather Map New forecast layout! Learn more

10-Day Weather Forecast

Advertisements
Track Severe Weather on mobile